sensor_id;sensor_type;location;lat;lon;timestamp;temperature;humidity
33382;DHT22;21342;48.786;9.166;2022-07-29T00:02:00;21.40;99.90
33382;DHT22;21342;48.786;9.166;2022-07-29T00:04:27;21.40;99.90
33382;DHT22;21342;48.786;9.166;2022-07-29T00:06:55;21.40;99.90
33382;DHT22;21342;48.786;9.166;2022-07-29T00:09:23;21.30;99.90
33382;DHT22;21342;48.786;9.166;2022-07-29T00:11:50;21.40;99.90
33382;DHT22;21342;48.786;9.166;2022-07-29T00:14:17;21.30;99.90
33382;DHT22;21342;48.786;9.166;2022-07-29T00:16:45;21.30;99.90
33382;DHT22;21342;48.786;9.166;2022-07-29T00:19:12;21.40;99.90
33382;DHT22;21342;48.786;9.166;2022-07-29T00:21:39;21.40;99.90
33382;DHT22;21342;48.786;9.166;2022-07-29T00:24:06;21.30;99.90
33382;DHT22;21342;48.786;9.166;2022-07-29T00:26:35;21.30;99.90
33382;DHT22;21342;48.786;9.166;2022-07-29T00:29:03;21.30;99.90
33382;DHT22;21342;48.786;9.166;2022-07-29T00:31:31;21.40;99.90
33382;DHT22;21342;48.786;9.166;2022-07-29T00:33:58;21.30;99.90
33382;DHT22;21342;48.786;9.166;2022-07-29T00:36:25;21.30;99.90
33382;DHT22;21342;48.786;9.166;2022-07-29T00:38:52;21.30;99.90
33382;DHT22;21342;48.786;9.166;2022-07-29T00:41:20;21.10;99.90
33382;DHT22;21342;48.786;9.166;2022-07-29T00:43:49;21.20;99.90
33382;DHT22;21342;48.786;9.166;2022-07-29T00:46:16;21.20;99.90
33382;DHT22;21342;48.786;9.166;2022-07-29T00:48:43;21.20;99.90
33382;DHT22;21342;48.786;9.166;2022-07-29T00:51:11;21.20;99.90
33382;DHT22;21342;48.786;9.166;2022-07-29T00:53:39;21.20;99.90
33382;DHT22;21342;48.786;9.166;2022-07-29T00:56:07;21.20;99.90
33382;DHT22;21342;48.786;9.166;2022-07-29T00:58:34;21.20;99.90
33382;DHT22;21342;48.786;9.166;2022-07-29T01:01:02;21.10;99.90
33382;DHT22;21342;48.786;9.166;2022-07-29T01:03:30;21.00;99.90
33382;DHT22;21342;48.786;9.166;2022-07-29T01:05:57;21.10;99.90
33382;DHT22;21342;48.786;9.166;2022-07-29T01:08:24;21.10;99.90
33382;DHT22;21342;48.786;9.166;2022-07-29T01:10:52;21.10;99.90
33382;DHT22;21342;48.786;9.166;2022-07-29T01:13:20;21.10;99.90
33382;DHT22;21342;48.786;9.166;2022-07-29T01:15:51;21.10;99.90
33382;DHT22;21342;48.786;9.166;2022-07-29T01:18:27;21.10;99.90
33382;DHT22;21342;48.786;9.166;2022-07-29T01:21:12;21.10;99.90
33382;DHT22;21342;48.786;9.166;2022-07-29T01:26:41;21.00;99.90
33382;DHT22;21342;48.786;9.166;2022-07-29T01:29:17;21.00;99.90
33382;DHT22;21342;48.786;9.166;2022-07-29T01:31:48;21.00;99.90
33382;DHT22;21342;48.786;9.166;2022-07-29T01:34:23;21.00;99.90
33382;DHT22;21342;48.786;9.166;2022-07-29T01:36:57;20.90;99.90
33382;DHT22;21342;48.786;9.166;2022-07-29T01:39:31;20.90;99.90
33382;DHT22;21342;48.786;9.166;2022-07-29T01:42:12;20.90;99.90
33382;DHT22;21342;48.786;9.166;2022-07-29T01:44:50;20.90;99.90
33382;DHT22;21342;48.786;9.166;2022-07-29T01:47:25;20.80;99.90
33382;DHT22;21342;48.786;9.166;2022-07-29T01:49:56;20.70;99.90
33382;DHT22;21342;48.786;9.166;2022-07-29T01:52:32;20.80;99.90
33382;DHT22;21342;48.786;9.166;2022-07-29T01:55:06;20.80;99.90
33382;DHT22;21342;48.786;9.166;2022-07-29T01:57:36;20.80;99.90
33382;DHT22;21342;48.786;9.166;2022-07-29T02:00:07;20.80;99.90
33382;DHT22;21342;48.786;9.166;2022-07-29T02:02:36;20.70;99.90
33382;DHT22;21342;48.786;9.166;2022-07-29T02:05:06;20.80;99.90
33382;DHT22;21342;48.786;9.166;2022-07-29T02:07:37;20.80;99.90
33382;DHT22;21342;48.786;9.166;2022-07-29T02:10:06;20.90;99.90
33382;DHT22;21342;48.786;9.166;2022-07-29T02:12:35;20.80;99.90
33382;DHT22;21342;48.786;9.166;2022-07-29T02:15:06;20.80;99.90
33382;DHT22;21342;48.786;9.166;2022-07-29T02:17:39;20.70;99.90
33382;DHT22;21342;48.786;9.166;2022-07-29T02:20:09;20.70;99.90
33382;DHT22;21342;48.786;9.166;2022-07-29T02:22:39;20.70;99.90
33382;DHT22;21342;48.786;9.166;2022-07-29T02:25:07;20.80;99.90
33382;DHT22;21342;48.786;9.166;2022-07-29T02:27:35;20.70;99.90
33382;DHT22;21342;48.786;9.166;2022-07-29T02:30:07;20.60;99.90
33382;DHT22;21342;48.786;9.166;2022-07-29T02:32:37;20.60;99.90
33382;DHT22;21342;48.786;9.166;2022-07-29T02:35:05;20.60;99.90
33382;DHT22;21342;48.786;9.166;2022-07-29T02:37:33;20.60;99.90
33382;DHT22;21342;48.786;9.166;2022-07-29T02:40:02;20.50;99.90
33382;DHT22;21342;48.786;9.166;2022-07-29T02:42:31;20.60;99.90
33382;DHT22;21342;48.786;9.166;2022-07-29T02:44:59;20.50;99.90
33382;DHT22;21342;48.786;9.166;2022-07-29T02:47:34;20.50;99.90
33382;DHT22;21342;48.786;9.166;2022-07-29T02:50:06;20.60;99.90
33382;DHT22;21342;48.786;9.166;2022-07-29T02:52:39;20.60;99.90
33382;DHT22;21342;48.786;9.166;2022-07-29T02:55:14;20.60;99.90
33382;DHT22;21342;48.786;9.166;2022-07-29T02:57:44;20.60;99.90
33382;DHT22;21342;48.786;9.166;2022-07-29T03:00:13;20.60;99.90
33382;DHT22;21342;48.786;9.166;2022-07-29T03:02:45;20.60;99.90
33382;DHT22;21342;48.786;9.166;2022-07-29T03:05:18;20.60;99.90
33382;DHT22;21342;48.786;9.166;2022-07-29T03:07:49;20.60;99.90
33382;DHT22;21342;48.786;9.166;2022-07-29T03:10:18;20.60;99.90
33382;DHT22;21342;48.786;9.166;2022-07-29T03:12:46;20.60;99.90
33382;DHT22;21342;48.786;9.166;2022-07-29T03:15:14;20.60;99.90
33382;DHT22;21342;48.786;9.166;2022-07-29T03:17:43;20.60;99.90
33382;DHT22;21342;48.786;9.166;2022-07-29T03:20:11;20.50;99.90
33382;DHT22;21342;48.786;9.166;2022-07-29T03:22:40;20.50;99.90
33382;DHT22;21342;48.786;9.166;2022-07-29T03:25:10;20.50;99.90
33382;DHT22;21342;48.786;9.166;2022-07-29T03:27:37;20.50;99.90
33382;DHT22;21342;48.786;9.166;2022-07-29T03:30:06;20.50;99.90
33382;DHT22;21342;48.786;9.166;2022-07-29T03:32:33;20.40;99.90
33382;DHT22;21342;48.786;9.166;2022-07-29T03:35:02;20.40;99.90
33382;DHT22;21342;48.786;9.166;2022-07-29T03:37:29;20.40;99.90
33382;DHT22;21342;48.786;9.166;2022-07-29T03:39:57;20.30;99.90
33382;DHT22;21342;48.786;9.166;2022-07-29T03:42:26;20.30;99.90
33382;DHT22;21342;48.786;9.166;2022-07-29T03:44:55;20.30;99.90
33382;DHT22;21342;48.786;9.166;2022-07-29T03:47:28;20.30;99.90
33382;DHT22;21342;48.786;9.166;2022-07-29T03:49:59;20.30;99.90
33382;DHT22;21342;48.786;9.166;2022-07-29T03:52:28;20.20;99.90
33382;DHT22;21342;48.786;9.166;2022-07-29T03:54:56;20.20;99.90
33382;DHT22;21342;48.786;9.166;2022-07-29T03:57:25;20.20;99.90
33382;DHT22;21342;48.786;9.166;2022-07-29T03:59:54;20.20;99.90
33382;DHT22;21342;48.786;9.166;2022-07-29T04:02:23;20.20;99.90
33382;DHT22;21342;48.786;9.166;2022-07-29T04:04:50;20.30;99.90
33382;DHT22;21342;48.786;9.166;2022-07-29T04:07:17;20.30;99.90
33382;DHT22;21342;48.786;9.166;2022-07-29T04:09:46;20.40;99.90
33382;DHT22;21342;48.786;9.166;2022-07-29T04:12:13;20.40;99.90
33382;DHT22;21342;48.786;9.166;2022-07-29T04:14:40;20.50;99.90
33382;DHT22;21342;48.786;9.166;2022-07-29T04:17:07;20.40;99.90
33382;DHT22;21342;48.786;9.166;2022-07-29T04:19:35;20.40;99.90
33382;DHT22;21342;48.786;9.166;2022-07-29T04:22:02;20.40;99.90
33382;DHT22;21342;48.786;9.166;2022-07-29T04:24:29;20.40;99.90
33382;DHT22;21342;48.786;9.166;2022-07-29T04:26:58;20.40;99.90
33382;DHT22;21342;48.786;9.166;2022-07-29T04:29:25;20.30;99.90
33382;DHT22;21342;48.786;9.166;2022-07-29T04:31:52;20.40;99.90
33382;DHT22;21342;48.786;9.166;2022-07-29T04:34:19;20.40;99.90
33382;DHT22;21342;48.786;9.166;2022-07-29T04:36:46;20.50;99.90
33382;DHT22;21342;48.786;9.166;2022-07-29T04:39:13;20.50;99.90
33382;DHT22;21342;48.786;9.166;2022-07-29T04:41:41;20.30;99.90
33382;DHT22;21342;48.786;9.166;2022-07-29T04:44:09;20.50;99.90
33382;DHT22;21342;48.786;9.166;2022-07-29T04:46:36;20.40;99.90
33382;DHT22;21342;48.786;9.166;2022-07-29T04:49:03;20.50;99.90
33382;DHT22;21342;48.786;9.166;2022-07-29T04:51:31;20.50;99.90
33382;DHT22;21342;48.786;9.166;2022-07-29T04:53:58;20.60;99.90
33382;DHT22;21342;48.786;9.166;2022-07-29T04:56:25;20.50;99.90
33382;DHT22;21342;48.786;9.166;2022-07-29T04:58:52;20.50;99.90
33382;DHT22;21342;48.786;9.166;2022-07-29T05:01:21;20.50;99.90
33382;DHT22;21342;48.786;9.166;2022-07-29T05:03:48;20.60;99.90
33382;DHT22;21342;48.786;9.166;2022-07-29T05:06:16;20.50;99.90
33382;DHT22;21342;48.786;9.166;2022-07-29T05:08:43;20.50;99.90
33382;DHT22;21342;48.786;9.166;2022-07-29T05:11:10;20.50;99.90
33382;DHT22;21342;48.786;9.166;2022-07-29T05:13:38;20.40;99.90
33382;DHT22;21342;48.786;9.166;2022-07-29T05:16:05;20.40;99.90
33382;DHT22;21342;48.786;9.166;2022-07-29T05:18:34;20.60;99.90
33382;DHT22;21342;48.786;9.166;2022-07-29T05:21:01;20.70;99.90
33382;DHT22;21342;48.786;9.166;2022-07-29T05:23:28;20.80;99.90
33382;DHT22;21342;48.786;9.166;2022-07-29T05:25:55;20.90;99.90
33382;DHT22;21342;48.786;9.166;2022-07-29T05:28:23;20.90;99.90
33382;DHT22;21342;48.786;9.166;2022-07-29T05:30:50;21.00;99.90
33382;DHT22;21342;48.786;9.166;2022-07-29T05:33:17;21.00;99.90
33382;DHT22;21342;48.786;9.166;2022-07-29T05:35:46;21.00;99.90
33382;DHT22;21342;48.786;9.166;2022-07-29T05:38:13;21.00;99.90
33382;DHT22;21342;48.786;9.166;2022-07-29T05:40:40;21.10;99.90
33382;DHT22;21342;48.786;9.166;2022-07-29T05:43:07;21.20;99.90
33382;DHT22;21342;48.786;9.166;2022-07-29T05:45:34;21.30;99.90
33382;DHT22;21342;48.786;9.166;2022-07-29T05:48:02;21.30;99.90
33382;DHT22;21342;48.786;9.166;2022-07-29T05:50:30;21.50;99.90
33382;DHT22;21342;48.786;9.166;2022-07-29T05:52:58;21.50;99.90
33382;DHT22;21342;48.786;9.166;2022-07-29T05:55:26;21.50;99.90
33382;DHT22;21342;48.786;9.166;2022-07-29T05:57:53;21.40;99.90
33382;DHT22;21342;48.786;9.166;2022-07-29T06:00:20;21.50;99.90
33382;DHT22;21342;48.786;9.166;2022-07-29T06:02:48;21.60;99.90
33382;DHT22;21342;48.786;9.166;2022-07-29T06:05:15;21.70;99.90
33382;DHT22;21342;48.786;9.166;2022-07-29T06:07:42;21.70;99.90
33382;DHT22;21342;48.786;9.166;2022-07-29T06:10:11;21.80;99.90
33382;DHT22;21342;48.786;9.166;2022-07-29T06:12:38;22.00;99.90
33382;DHT22;21342;48.786;9.166;2022-07-29T06:15:06;22.10;99.90
33382;DHT22;21342;48.786;9.166;2022-07-29T06:17:34;22.20;99.90
33382;DHT22;21342;48.786;9.166;2022-07-29T06:20:01;22.30;99.90
33382;DHT22;21342;48.786;9.166;2022-07-29T06:22:29;22.40;99.90
33382;DHT22;21342;48.786;9.166;2022-07-29T06:24:56;22.50;99.90
33382;DHT22;21342;48.786;9.166;2022-07-29T06:27:25;22.50;99.90
33382;DHT22;21342;48.786;9.166;2022-07-29T06:29:52;22.60;99.90
33382;DHT22;21342;48.786;9.166;2022-07-29T06:32:23;22.70;99.90
33382;DHT22;21342;48.786;9.166;2022-07-29T06:34:51;22.80;99.90
33382;DHT22;21342;48.786;9.166;2022-07-29T06:37:18;23.00;99.90
33382;DHT22;21342;48.786;9.166;2022-07-29T06:39:45;23.10;99.90
33382;DHT22;21342;48.786;9.166;2022-07-29T06:42:13;23.30;99.90
33382;DHT22;21342;48.786;9.166;2022-07-29T06:44:41;23.30;99.90
33382;DHT22;21342;48.786;9.166;2022-07-29T06:47:09;23.50;99.90
33382;DHT22;21342;48.786;9.166;2022-07-29T06:49:36;23.60;99.90
33382;DHT22;21342;48.786;9.166;2022-07-29T06:52:03;23.50;99.90
33382;DHT22;21342;48.786;9.166;2022-07-29T06:54:31;23.20;99.90
33382;DHT22;21342;48.786;9.166;2022-07-29T06:56:58;23.20;99.90
33382;DHT22;21342;48.786;9.166;2022-07-29T06:59:25;23.40;99.90
33382;DHT22;21342;48.786;9.166;2022-07-29T07:01:54;23.50;99.90
33382;DHT22;21342;48.786;9.166;2022-07-29T07:04:21;23.70;99.90
33382;DHT22;21342;48.786;9.166;2022-07-29T07:06:48;23.90;99.90
33382;DHT22;21342;48.786;9.166;2022-07-29T07:09:16;24.10;99.90
33382;DHT22;21342;48.786;9.166;2022-07-29T07:11:43;24.50;99.90
33382;DHT22;21342;48.786;9.166;2022-07-29T07:14:10;24.50;99.90
33382;DHT22;21342;48.786;9.166;2022-07-29T07:16:37;24.50;99.90
33382;DHT22;21342;48.786;9.166;2022-07-29T07:19:06;24.50;99.90
33382;DHT22;21342;48.786;9.166;2022-07-29T07:21:33;24.40;99.90
33382;DHT22;21342;48.786;9.166;2022-07-29T07:24:02;24.50;99.90
33382;DHT22;21342;48.786;9.166;2022-07-29T07:26:29;24.10;99.90
33382;DHT22;21342;48.786;9.166;2022-07-29T07:28:56;24.40;99.90
33382;DHT22;21342;48.786;9.166;2022-07-29T07:31:23;24.60;99.90
33382;DHT22;21342;48.786;9.166;2022-07-29T07:33:50;24.60;99.90
33382;DHT22;21342;48.786;9.166;2022-07-29T07:36:20;24.60;99.90
33382;DHT22;21342;48.786;9.166;2022-07-29T07:38:47;24.80;99.90
33382;DHT22;21342;48.786;9.166;2022-07-29T07:41:14;25.20;99.90
33382;DHT22;21342;48.786;9.166;2022-07-29T07:43:42;25.50;99.90
33382;DHT22;21342;48.786;9.166;2022-07-29T07:46:09;25.80;99.90
33382;DHT22;21342;48.786;9.166;2022-07-29T07:48:36;26.50;99.90
33382;DHT22;21342;48.786;9.166;2022-07-29T07:51:03;27.10;99.90
33382;DHT22;21342;48.786;9.166;2022-07-29T07:53:32;27.70;99.90
33382;DHT22;21342;48.786;9.166;2022-07-29T07:55:59;27.90;99.90
33382;DHT22;21342;48.786;9.166;2022-07-29T07:58:26;28.20;99.90
33382;DHT22;21342;48.786;9.166;2022-07-29T08:00:53;28.50;99.90
33382;DHT22;21342;48.786;9.166;2022-07-29T08:03:20;28.30;99.50
33382;DHT22;21342;48.786;9.166;2022-07-29T08:05:48;28.00;99.40
33382;DHT22;21342;48.786;9.166;2022-07-29T08:08:16;27.70;99.90
33382;DHT22;21342;48.786;9.166;2022-07-29T08:10:45;27.80;99.70
33382;DHT22;21342;48.786;9.166;2022-07-29T08:13:23;28.50;99.80
33382;DHT22;21342;48.786;9.166;2022-07-29T08:15:50;29.00;98.80
33382;DHT22;21342;48.786;9.166;2022-07-29T08:18:23;29.00;97.90
33382;DHT22;21342;48.786;9.166;2022-07-29T08:20:50;29.50;97.20
33382;DHT22;21342;48.786;9.166;2022-07-29T08:23:17;29.60;97.40
33382;DHT22;21342;48.786;9.166;2022-07-29T08:25:46;29.60;96.10
33382;DHT22;21342;48.786;9.166;2022-07-29T08:28:14;29.80;96.40
33382;DHT22;21342;48.786;9.166;2022-07-29T08:30:41;29.30;96.00
33382;DHT22;21342;48.786;9.166;2022-07-29T08:33:08;29.60;94.70
33382;DHT22;21342;48.786;9.166;2022-07-29T08:35:36;29.70;95.00
33382;DHT22;21342;48.786;9.166;2022-07-29T08:38:03;30.70;92.30
33382;DHT22;21342;48.786;9.166;2022-07-29T08:40:30;30.00;92.10
33382;DHT22;21342;48.786;9.166;2022-07-29T08:43:03;29.50;92.30
33382;DHT22;21342;48.786;9.166;2022-07-29T08:45:37;29.40;92.30
33382;DHT22;21342;48.786;9.166;2022-07-29T08:48:07;30.10;91.90
33382;DHT22;21342;48.786;9.166;2022-07-29T08:50:35;29.70;91.00
33382;DHT22;21342;48.786;9.166;2022-07-29T08:53:03;29.60;91.50
33382;DHT22;21342;48.786;9.166;2022-07-29T08:55:30;29.60;91.50
33382;DHT22;21342;48.786;9.166;2022-07-29T08:57:59;29.80;90.10
33382;DHT22;21342;48.786;9.166;2022-07-29T09:00:27;30.00;90.50
33382;DHT22;21342;48.786;9.166;2022-07-29T09:02:57;30.20;89.00
33382;DHT22;21342;48.786;9.166;2022-07-29T09:05:26;31.10;88.40
33382;DHT22;21342;48.786;9.166;2022-07-29T09:07:53;31.70;85.30
33382;DHT22;21342;48.786;9.166;2022-07-29T09:10:21;31.70;83.50
33382;DHT22;21342;48.786;9.166;2022-07-29T09:12:48;31.90;82.90
33382;DHT22;21342;48.786;9.166;2022-07-29T09:15:17;32.20;82.40
33382;DHT22;21342;48.786;9.166;2022-07-29T09:17:46;31.60;81.90
33382;DHT22;21342;48.786;9.166;2022-07-29T09:20:16;31.70;81.80
33382;DHT22;21342;48.786;9.166;2022-07-29T09:22:44;31.50;81.20
33382;DHT22;21342;48.786;9.166;2022-07-29T09:25:15;31.60;81.60
33382;DHT22;21342;48.786;9.166;2022-07-29T09:27:49;31.30;80.20
33382;DHT22;21342;48.786;9.166;2022-07-29T09:30:18;31.90;80.50
33382;DHT22;21342;48.786;9.166;2022-07-29T09:32:54;31.50;79.30
33382;DHT22;21342;48.786;9.166;2022-07-29T09:35:24;31.20;81.10
33382;DHT22;21342;48.786;9.166;2022-07-29T09:37:51;31.30;79.90
33382;DHT22;21342;48.786;9.166;2022-07-29T09:42:47;32.70;79.40
33382;DHT22;21342;48.786;9.166;2022-07-29T09:45:27;32.30;77.30
33382;DHT22;21342;48.786;9.166;2022-07-29T09:47:55;32.80;78.20
33382;DHT22;21342;48.786;9.166;2022-07-29T09:53:02;33.00;76.60
33382;DHT22;21342;48.786;9.166;2022-07-29T09:55:29;32.10;76.80
33382;DHT22;21342;48.786;9.166;2022-07-29T09:58:15;32.30;76.70
33382;DHT22;21342;48.786;9.166;2022-07-29T10:00:44;31.90;77.40
33382;DHT22;21342;48.786;9.166;2022-07-29T10:03:12;31.90;76.50
33382;DHT22;21342;48.786;9.166;2022-07-29T10:05:39;31.10;79.60
33382;DHT22;21342;48.786;9.166;2022-07-29T10:08:08;30.20;80.00
33382;DHT22;21342;48.786;9.166;2022-07-29T10:10:37;29.80;82.40
33382;DHT22;21342;48.786;9.166;2022-07-29T10:13:05;29.70;82.40
33382;DHT22;21342;48.786;9.166;2022-07-29T10:15:35;29.50;81.10
33382;DHT22;21342;48.786;9.166;2022-07-29T10:18:06;29.40;82.80
33382;DHT22;21342;48.786;9.166;2022-07-29T10:20:34;29.40;83.30
33382;DHT22;21342;48.786;9.166;2022-07-29T10:23:02;29.40;83.30
33382;DHT22;21342;48.786;9.166;2022-07-29T10:25:30;29.30;83.40
33382;DHT22;21342;48.786;9.166;2022-07-29T10:27:57;29.20;84.00
33382;DHT22;21342;48.786;9.166;2022-07-29T10:30:26;29.00;84.20
33382;DHT22;21342;48.786;9.166;2022-07-29T10:33:15;28.60;84.90
33382;DHT22;21342;48.786;9.166;2022-07-29T10:35:58;28.30;88.00
33382;DHT22;21342;48.786;9.166;2022-07-29T10:38:44;27.80;88.90
33382;DHT22;21342;48.786;9.166;2022-07-29T10:43:56;27.60;90.40
33382;DHT22;21342;48.786;9.166;2022-07-29T10:46:25;27.50;90.90
33382;DHT22;21342;48.786;9.166;2022-07-29T10:49:15;27.40;91.40
33382;DHT22;21342;48.786;9.166;2022-07-29T10:51:59;27.20;92.40
33382;DHT22;21342;48.786;9.166;2022-07-29T10:54:38;26.90;94.00
33382;DHT22;21342;48.786;9.166;2022-07-29T10:57:14;26.80;95.80
33382;DHT22;21342;48.786;9.166;2022-07-29T10:59:43;26.70;99.00
33382;DHT22;21342;48.786;9.166;2022-07-29T11:02:40;26.30;99.90
33382;DHT22;21342;48.786;9.166;2022-07-29T11:05:14;25.90;99.90
33382;DHT22;21342;48.786;9.166;2022-07-29T11:08:17;25.60;99.90
33382;DHT22;21342;48.786;9.166;2022-07-29T11:10:45;25.30;99.90
33382;DHT22;21342;48.786;9.166;2022-07-29T11:13:13;25.20;99.90
33382;DHT22;21342;48.786;9.166;2022-07-29T11:16:00;25.00;99.90
33382;DHT22;21342;48.786;9.166;2022-07-29T11:18:28;24.50;99.90
33382;DHT22;21342;48.786;9.166;2022-07-29T11:20:56;23.90;99.90
33382;DHT22;21342;48.786;9.166;2022-07-29T11:23:26;23.20;99.90
33382;DHT22;21342;48.786;9.166;2022-07-29T11:26:13;22.60;99.90
33382;DHT22;21342;48.786;9.166;2022-07-29T11:28:53;22.40;99.90
33382;DHT22;21342;48.786;9.166;2022-07-29T11:31:33;22.20;99.90
33382;DHT22;21342;48.786;9.166;2022-07-29T11:34:21;22.10;99.90
33382;DHT22;21342;48.786;9.166;2022-07-29T11:37:16;22.10;99.90
33382;DHT22;21342;48.786;9.166;2022-07-29T11:39:44;22.00;99.90
33382;DHT22;21342;48.786;9.166;2022-07-29T11:42:36;22.00;99.90
33382;DHT22;21342;48.786;9.166;2022-07-29T11:45:05;22.10;99.90
33382;DHT22;21342;48.786;9.166;2022-07-29T11:47:34;22.10;99.90
33382;DHT22;21342;48.786;9.166;2022-07-29T11:50:04;22.10;99.90
33382;DHT22;21342;48.786;9.166;2022-07-29T11:52:34;22.10;99.90
33382;DHT22;21342;48.786;9.166;2022-07-29T11:55:04;22.10;99.90
33382;DHT22;21342;48.786;9.166;2022-07-29T11:57:34;22.10;99.90
33382;DHT22;21342;48.786;9.166;2022-07-29T12:00:02;22.20;99.90
33382;DHT22;21342;48.786;9.166;2022-07-29T12:02:38;22.20;99.90
33382;DHT22;21342;48.786;9.166;2022-07-29T12:05:08;22.30;99.90
33382;DHT22;21342;48.786;9.166;2022-07-29T12:07:38;22.40;99.90
33382;DHT22;21342;48.786;9.166;2022-07-29T12:10:07;22.50;99.90
33382;DHT22;21342;48.786;9.166;2022-07-29T12:12:35;22.50;99.90
33382;DHT22;21342;48.786;9.166;2022-07-29T12:15:12;22.60;99.90
33382;DHT22;21342;48.786;9.166;2022-07-29T12:17:39;22.70;99.90
33382;DHT22;21342;48.786;9.166;2022-07-29T12:20:07;22.80;99.90
33382;DHT22;21342;48.786;9.166;2022-07-29T12:22:37;22.70;99.90
33382;DHT22;21342;48.786;9.166;2022-07-29T12:25:06;22.70;99.90
33382;DHT22;21342;48.786;9.166;2022-07-29T12:27:35;22.70;99.90
33382;DHT22;21342;48.786;9.166;2022-07-29T12:30:05;22.80;99.90
33382;DHT22;21342;48.786;9.166;2022-07-29T12:32:34;22.90;99.90
33382;DHT22;21342;48.786;9.166;2022-07-29T12:35:03;23.10;99.90
33382;DHT22;21342;48.786;9.166;2022-07-29T12:37:32;23.00;99.90
33382;DHT22;21342;48.786;9.166;2022-07-29T12:40:01;22.80;99.90
33382;DHT22;21342;48.786;9.166;2022-07-29T12:42:28;22.80;99.90
33382;DHT22;21342;48.786;9.166;2022-07-29T12:44:56;22.60;99.90
33382;DHT22;21342;48.786;9.166;2022-07-29T12:47:23;22.50;99.90
33382;DHT22;21342;48.786;9.166;2022-07-29T12:49:52;22.50;99.90
33382;DHT22;21342;48.786;9.166;2022-07-29T12:52:34;22.50;99.90
33382;DHT22;21342;48.786;9.166;2022-07-29T12:55:04;22.40;99.90
33382;DHT22;21342;48.786;9.166;2022-07-29T12:57:35;22.40;99.90
33382;DHT22;21342;48.786;9.166;2022-07-29T13:00:13;22.30;99.90
33382;DHT22;21342;48.786;9.166;2022-07-29T13:02:41;22.30;99.90
33382;DHT22;21342;48.786;9.166;2022-07-29T13:05:10;22.40;99.90
33382;DHT22;21342;48.786;9.166;2022-07-29T13:07:38;22.40;99.90
33382;DHT22;21342;48.786;9.166;2022-07-29T13:10:17;22.40;99.90
33382;DHT22;21342;48.786;9.166;2022-07-29T13:13:05;22.40;99.90
33382;DHT22;21342;48.786;9.166;2022-07-29T13:15:34;22.30;99.90
33382;DHT22;21342;48.786;9.166;2022-07-29T13:18:02;22.20;99.90
33382;DHT22;21342;48.786;9.166;2022-07-29T13:20:30;22.30;99.90
33382;DHT22;21342;48.786;9.166;2022-07-29T13:22:57;22.30;99.90
33382;DHT22;21342;48.786;9.166;2022-07-29T13:25:28;22.30;99.90
33382;DHT22;21342;48.786;9.166;2022-07-29T13:27:56;22.20;99.90
33382;DHT22;21342;48.786;9.166;2022-07-29T13:30:23;22.10;99.90
33382;DHT22;21342;48.786;9.166;2022-07-29T13:32:51;22.00;99.90
33382;DHT22;21342;48.786;9.166;2022-07-29T13:35:19;21.90;99.90
33382;DHT22;21342;48.786;9.166;2022-07-29T13:37:46;22.00;99.90
33382;DHT22;21342;48.786;9.166;2022-07-29T13:40:13;22.00;99.90
33382;DHT22;21342;48.786;9.166;2022-07-29T13:42:42;22.00;99.90
33382;DHT22;21342;48.786;9.166;2022-07-29T13:45:10;21.90;99.90
33382;DHT22;21342;48.786;9.166;2022-07-29T13:47:38;21.90;99.90
33382;DHT22;21342;48.786;9.166;2022-07-29T13:50:07;21.90;99.90
33382;DHT22;21342;48.786;9.166;2022-07-29T13:52:36;21.80;99.90
33382;DHT22;21342;48.786;9.166;2022-07-29T13:55:04;22.00;99.90
33382;DHT22;21342;48.786;9.166;2022-07-29T13:57:31;22.10;99.90
33382;DHT22;21342;48.786;9.166;2022-07-29T14:00:00;22.30;99.90
33382;DHT22;21342;48.786;9.166;2022-07-29T14:02:27;22.50;99.90
33382;DHT22;21342;48.786;9.166;2022-07-29T14:04:55;22.60;99.90
33382;DHT22;21342;48.786;9.166;2022-07-29T14:07:22;22.70;99.90
33382;DHT22;21342;48.786;9.166;2022-07-29T14:09:50;22.80;99.90
33382;DHT22;21342;48.786;9.166;2022-07-29T14:12:17;22.80;99.90
33382;DHT22;21342;48.786;9.166;2022-07-29T14:14:44;23.00;99.90
33382;DHT22;21342;48.786;9.166;2022-07-29T14:17:13;23.30;99.90
33382;DHT22;21342;48.786;9.166;2022-07-29T14:19:40;23.40;99.90
33382;DHT22;21342;48.786;9.166;2022-07-29T14:22:08;23.50;99.90
33382;DHT22;21342;48.786;9.166;2022-07-29T14:24:36;23.60;99.90
33382;DHT22;21342;48.786;9.166;2022-07-29T14:27:03;23.70;99.90
33382;DHT22;21342;48.786;9.166;2022-07-29T14:29:30;23.70;99.90
33382;DHT22;21342;48.786;9.166;2022-07-29T14:31:58;23.80;99.90
33382;DHT22;21342;48.786;9.166;2022-07-29T14:34:26;23.70;99.90
33382;DHT22;21342;48.786;9.166;2022-07-29T14:36:53;23.80;99.90
33382;DHT22;21342;48.786;9.166;2022-07-29T14:39:21;23.90;99.90
33382;DHT22;21342;48.786;9.166;2022-07-29T14:41:49;23.90;99.90
33382;DHT22;21342;48.786;9.166;2022-07-29T14:44:18;23.90;99.90
33382;DHT22;21342;48.786;9.166;2022-07-29T14:46:45;24.00;99.90
33382;DHT22;21342;48.786;9.166;2022-07-29T14:49:13;24.10;99.90
33382;DHT22;21342;48.786;9.166;2022-07-29T14:51:42;24.10;99.90
33382;DHT22;21342;48.786;9.166;2022-07-29T14:54:09;24.10;99.90
33382;DHT22;21342;48.786;9.166;2022-07-29T14:56:36;24.20;99.90
33382;DHT22;21342;48.786;9.166;2022-07-29T14:59:03;24.20;99.90
33382;DHT22;21342;48.786;9.166;2022-07-29T15:01:31;24.30;99.90
33382;DHT22;21342;48.786;9.166;2022-07-29T15:03:58;24.30;99.90
33382;DHT22;21342;48.786;9.166;2022-07-29T15:06:26;24.30;99.90
33382;DHT22;21342;48.786;9.166;2022-07-29T15:08:54;24.40;99.90
33382;DHT22;21342;48.786;9.166;2022-07-29T15:11:21;24.30;99.90
33382;DHT22;21342;48.786;9.166;2022-07-29T15:13:48;24.30;99.90
33382;DHT22;21342;48.786;9.166;2022-07-29T15:16:15;24.40;99.90
33382;DHT22;21342;48.786;9.166;2022-07-29T15:18:43;24.50;99.90
33382;DHT22;21342;48.786;9.166;2022-07-29T15:21:10;24.60;99.90
33382;DHT22;21342;48.786;9.166;2022-07-29T15:23:37;24.70;99.90
33382;DHT22;21342;48.786;9.166;2022-07-29T15:26:06;24.70;99.90
33382;DHT22;21342;48.786;9.166;2022-07-29T15:28:33;24.70;99.90
33382;DHT22;21342;48.786;9.166;2022-07-29T15:31:00;24.70;99.90
33382;DHT22;21342;48.786;9.166;2022-07-29T15:33:27;24.80;99.90
33382;DHT22;21342;48.786;9.166;2022-07-29T15:35:56;24.80;99.90
33382;DHT22;21342;48.786;9.166;2022-07-29T15:38:23;24.60;99.90
33382;DHT22;21342;48.786;9.166;2022-07-29T15:40:50;24.60;99.90
33382;DHT22;21342;48.786;9.166;2022-07-29T15:43:19;24.70;99.90
33382;DHT22;21342;48.786;9.166;2022-07-29T15:45:46;24.70;99.90
33382;DHT22;21342;48.786;9.166;2022-07-29T15:48:27;24.70;99.90
33382;DHT22;21342;48.786;9.166;2022-07-29T15:50:54;24.60;99.90
33382;DHT22;21342;48.786;9.166;2022-07-29T15:53:21;24.70;99.90
33382;DHT22;21342;48.786;9.166;2022-07-29T15:55:48;24.60;99.90